Terminal Aerodrome Forecast
Issued by NWS Mt. Holly, NJ

Home | Current Version | Previous Version | Text Only | Print | Product List | Glossary On
Versions: 1 2 3 4 5 6 7 8 9 10 11 12 13 14 15 16 17 18 19 20 21 22 23 24 25 26 27 28 29 30 31 32
000
FTAK31 PANC 270538
TAFABE
TAF
PABE 270538Z 2706/2806 20008KT P6SM VCSH OVC050
     FM271000 VRB03KT 2SM BR BKN008
      TEMPO 2714/2718 1/2SM FG BKN002
     FM272100 24006KT P6SM SCT050 BKN080
     FM280400 28005KT P6SM BKN050=

USA.gov is the U.S. government's official web portal to all federal, state and local government web resources and services.